sensor_id;sensor_type;location;lat;lon;timestamp;pressure;altitude;pressure_sealevel;temperature;humidity
75788;BME280;64406;50.024;14.492;2022-10-30T00:02:15;98594.97;;;11.01;86.85
75788;BME280;64406;50.024;14.492;2022-10-30T00:04:40;98594.16;;;11.06;87.32
75788;BME280;64406;50.024;14.492;2022-10-30T00:07:06;98593.34;;;11.05;86.69
75788;BME280;64406;50.024;14.492;2022-10-30T00:09:31;98587.69;;;11.02;86.52
75788;BME280;64406;50.024;14.492;2022-10-30T00:11:57;98588.25;;;11.04;87.09
75788;BME280;64406;50.024;14.492;2022-10-30T00:14:22;98591.19;;;11.02;87.46
75788;BME280;64406;50.024;14.492;2022-10-30T00:16:48;98591.47;;;11.01;87.89
75788;BME280;64406;50.024;14.492;2022-10-30T00:19:13;98591.75;;;10.99;87.84
75788;BME280;64406;50.024;14.492;2022-10-30T00:21:39;98592.03;;;10.98;87.46
75788;BME280;64406;50.024;14.492;2022-10-30T00:24:05;98590.66;;;11.00;87.22
75788;BME280;64406;50.024;14.492;2022-10-30T00:26:31;98585.00;;;11.02;87.31
75788;BME280;64406;50.024;14.492;2022-10-30T00:28:57;98592.28;;;11.01;87.62
75788;BME280;64406;50.024;14.492;2022-10-30T00:31:23;98591.47;;;11.01;87.57
75788;BME280;64406;50.024;14.492;2022-10-30T00:33:53;98586.34;;;11.04;87.92
75788;BME280;64406;50.024;14.492;2022-10-30T00:36:20;98585.25;;;11.05;87.05
75788;BME280;64406;50.024;14.492;2022-10-30T00:38:46;98579.06;;;11.05;86.52
75788;BME280;64406;50.024;14.492;2022-10-30T00:41:16;98574.19;;;11.07;87.69
75788;BME280;64406;50.024;14.492;2022-10-30T00:43:42;98582.03;;;11.03;87.18
75788;BME280;64406;50.024;14.492;2022-10-30T00:51:32;98579.88;;;11.00;87.88
75788;BME280;64406;50.024;14.492;2022-10-30T00:53:59;98580.41;;;11.02;88.21
75788;BME280;64406;50.024;14.492;2022-10-30T00:56:27;98577.97;;;11.01;87.74
75788;BME280;64406;50.024;14.492;2022-10-30T00:58:58;98578.25;;;11.04;87.75
75788;BME280;64406;50.024;14.492;2022-10-30T01:01:26;98565.06;;;11.03;87.57
75788;BME280;64406;50.024;14.492;2022-10-30T01:03:58;98569.63;;;11.07;87.78
75788;BME280;64406;50.024;14.492;2022-10-30T01:06:25;98563.41;;;11.12;87.68
75788;BME280;64406;50.024;14.492;2022-10-30T01:08:53;98558.56;;;11.09;87.89
75788;BME280;64406;50.024;14.492;2022-10-30T01:11:19;98578.78;;;11.16;87.73
75788;BME280;64406;50.024;14.492;2022-10-30T01:13:46;98565.81;;;11.19;87.18
75788;BME280;64406;50.024;14.492;2022-10-30T01:19:47;98575.00;;;11.18;87.14
75788;BME280;64406;50.024;14.492;2022-10-30T01:25:20;98570.69;;;11.11;86.78
75788;BME280;64406;50.024;14.492;2022-10-30T01:30:59;98565.59;;;11.10;86.88
75788;BME280;64406;50.024;14.492;2022-10-30T01:33:50;98561.53;;;11.12;87.35
75788;BME280;64406;50.024;14.492;2022-10-30T01:36:32;98560.16;;;11.15;86.98
75788;BME280;64406;50.024;14.492;2022-10-30T01:39:13;98560.72;;;11.17;87.34
75788;BME280;64406;50.024;14.492;2022-10-30T01:41:39;98560.72;;;11.17;87.27
75788;BME280;64406;50.024;14.492;2022-10-30T01:44:13;98559.63;;;11.13;87.70
75788;BME280;64406;50.024;14.492;2022-10-30T01:46:58;98561.00;;;11.10;87.80
75788;BME280;64406;50.024;14.492;2022-10-30T01:52:20;98557.50;;;10.95;87.49
75788;BME280;64406;50.024;14.492;2022-10-30T01:57:38;98544.88;;;10.75;87.31
75788;BME280;64406;50.024;14.492;2022-10-30T02:00:14;98538.44;;;10.66;88.41
75788;BME280;64406;50.024;14.492;2022-10-30T02:02:41;98539.25;;;10.66;87.81
75788;BME280;64406;50.024;14.492;2022-10-30T02:05:08;98532.50;;;10.58;88.12
75788;BME280;64406;50.024;14.492;2022-10-30T02:07:35;98534.13;;;10.54;86.82
75788;BME280;64406;50.024;14.492;2022-10-30T02:10:01;98532.78;;;10.47;86.42
75788;BME280;64406;50.024;14.492;2022-10-30T02:12:26;98526.59;;;10.31;86.91
75788;BME280;64406;50.024;14.492;2022-10-30T02:14:56;98525.75;;;10.20;86.93
75788;BME280;64406;50.024;14.492;2022-10-30T02:17:22;98524.13;;;10.09;86.81
75788;BME280;64406;50.024;14.492;2022-10-30T02:19:48;98523.03;;;10.00;85.84
75788;BME280;64406;50.024;14.492;2022-10-30T02:22:14;98532.72;;;9.86;85.79
75788;BME280;64406;50.024;14.492;2022-10-30T02:24:39;98524.06;;;9.84;86.14
75788;BME280;64406;50.024;14.492;2022-10-30T02:27:04;98533.22;;;9.72;86.31
75788;BME280;64406;50.024;14.492;2022-10-30T02:29:30;98548.25;;;9.68;87.09
75788;BME280;64406;50.024;14.492;2022-10-30T02:31:55;98542.56;;;9.44;87.83
75788;BME280;64406;50.024;14.492;2022-10-30T02:34:21;98545.13;;;9.24;88.44
75788;BME280;64406;50.024;14.492;2022-10-30T02:36:47;98539.50;;;9.25;89.08
75788;BME280;64406;50.024;14.492;2022-10-30T02:39:12;98536.03;;;9.30;90.01
75788;BME280;64406;50.024;14.492;2022-10-30T02:41:38;98530.91;;;9.29;89.89
75788;BME280;64406;50.024;14.492;2022-10-30T02:44:04;98526.66;;;9.38;90.04
75788;BME280;64406;50.024;14.492;2022-10-30T02:46:31;98530.66;;;9.35;89.35
75788;BME280;64406;50.024;14.492;2022-10-30T02:48:57;98535.81;;;9.42;88.76
75788;BME280;64406;50.024;14.492;2022-10-30T02:51:22;98540.41;;;9.46;88.87
75788;BME280;64406;50.024;14.492;2022-10-30T02:53:48;98539.94;;;9.65;89.17
75788;BME280;64406;50.024;14.492;2022-10-30T02:56:14;98546.38;;;9.69;88.87
75788;BME280;64406;50.024;14.492;2022-10-30T02:58:40;98552.84;;;9.73;88.04
75788;BME280;64406;50.024;14.492;2022-10-30T03:01:14;98541.28;;;9.72;88.59
75788;BME280;64406;50.024;14.492;2022-10-30T03:03:40;98538.88;;;9.71;88.83
75788;BME280;64406;50.024;14.492;2022-10-30T03:06:08;98542.09;;;9.73;88.81
75788;BME280;64406;50.024;14.492;2022-10-30T03:08:35;98548.28;;;9.84;88.81
75788;BME280;64406;50.024;14.492;2022-10-30T03:11:20;98536.75;;;9.88;89.38
75788;BME280;64406;50.024;14.492;2022-10-30T03:13:47;98534.31;;;9.87;89.20
75788;BME280;64406;50.024;14.492;2022-10-30T03:16:16;98534.59;;;9.85;89.16
75788;BME280;64406;50.024;14.492;2022-10-30T03:18:42;98531.63;;;9.87;88.97
75788;BME280;64406;50.024;14.492;2022-10-30T03:21:11;98535.91;;;9.82;89.30
75788;BME280;64406;50.024;14.492;2022-10-30T03:23:37;98532.16;;;9.78;89.48
75788;BME280;64406;50.024;14.492;2022-10-30T03:26:03;98532.69;;;9.75;89.42
75788;BME280;64406;50.024;14.492;2022-10-30T03:28:30;98547.94;;;9.54;89.24
75788;BME280;64406;50.024;14.492;2022-10-30T03:31:14;98543.34;;;9.50;88.81
75788;BME280;64406;50.024;14.492;2022-10-30T03:33:41;98539.31;;;9.47;88.62
75788;BME280;64406;50.024;14.492;2022-10-30T03:36:08;98531.00;;;9.54;88.82
75788;BME280;64406;50.024;14.492;2022-10-30T03:38:34;98538.25;;;9.48;89.29
75788;BME280;64406;50.024;14.492;2022-10-30T03:41:00;98537.97;;;9.45;88.87
75788;BME280;64406;50.024;14.492;2022-10-30T03:43:25;98527.97;;;9.35;88.38
75788;BME280;64406;50.024;14.492;2022-10-30T03:45:53;98529.84;;;9.24;87.94
75788;BME280;64406;50.024;14.492;2022-10-30T03:48:21;98526.31;;;9.19;86.97
75788;BME280;64406;50.024;14.492;2022-10-30T03:50:47;98512.56;;;9.10;87.16
75788;BME280;64406;50.024;14.492;2022-10-30T03:53:12;98524.63;;;9.08;87.06
75788;BME280;64406;50.024;14.492;2022-10-30T03:55:38;98534.47;;;8.87;87.18
75788;BME280;64406;50.024;14.492;2022-10-30T03:58:05;98533.63;;;8.81;87.76
75788;BME280;64406;50.024;14.492;2022-10-30T04:00:31;98523.75;;;8.92;87.54
75788;BME280;64406;50.024;14.492;2022-10-30T04:02:57;98518.38;;;8.92;87.49
75788;BME280;64406;50.024;14.492;2022-10-30T04:05:23;98528.91;;;8.98;87.91
75788;BME280;64406;50.024;14.492;2022-10-30T04:07:58;98531.81;;;8.97;88.37
75788;BME280;64406;50.024;14.492;2022-10-30T04:10:24;98535.00;;;8.89;87.78
75788;BME280;64406;50.024;14.492;2022-10-30T04:12:50;98537.19;;;8.97;87.64
75788;BME280;64406;50.024;14.492;2022-10-30T04:15:17;98536.63;;;8.85;88.21
75788;BME280;64406;50.024;14.492;2022-10-30T04:17:50;98537.31;;;8.70;88.23
75788;BME280;64406;50.024;14.492;2022-10-30T04:20:19;98532.47;;;8.67;88.51
75788;BME280;64406;50.024;14.492;2022-10-30T04:22:46;98528.78;;;8.78;88.37
75788;BME280;64406;50.024;14.492;2022-10-30T04:25:12;98523.38;;;8.73;87.99
75788;BME280;64406;50.024;14.492;2022-10-30T04:27:41;98519.63;;;8.74;87.88
75788;BME280;64406;50.024;14.492;2022-10-30T04:30:10;98517.69;;;8.69;88.27
75788;BME280;64406;50.024;14.492;2022-10-30T04:32:35;98517.16;;;8.67;88.38
75788;BME280;64406;50.024;14.492;2022-10-30T04:35:01;98504.53;;;8.68;87.78
75788;BME280;64406;50.024;14.492;2022-10-30T04:37:29;98517.88;;;8.58;88.65
75788;BME280;64406;50.024;14.492;2022-10-30T04:39:54;98502.31;;;8.55;88.92
75788;BME280;64406;50.024;14.492;2022-10-30T04:42:20;98508.22;;;8.57;88.89
75788;BME280;64406;50.024;14.492;2022-10-30T04:44:45;98515.78;;;8.65;89.20
75788;BME280;64406;50.024;14.492;2022-10-30T04:47:11;98508.31;;;8.67;89.53
75788;BME280;64406;50.024;14.492;2022-10-30T04:49:36;98503.78;;;8.73;89.35
75788;BME280;64406;50.024;14.492;2022-10-30T04:52:02;98503.47;;;8.69;89.19
75788;BME280;64406;50.024;14.492;2022-10-30T04:54:27;98504.16;;;8.91;90.04
75788;BME280;64406;50.024;14.492;2022-10-30T04:56:53;98503.06;;;8.97;89.68
75788;BME280;64406;50.024;14.492;2022-10-30T04:59:18;98499.63;;;9.02;89.46
75788;BME280;64406;50.024;14.492;2022-10-30T05:01:44;98494.53;;;9.11;89.51
75788;BME280;64406;50.024;14.492;2022-10-30T05:04:09;98489.75;;;9.18;89.21
75788;BME280;64406;50.024;14.492;2022-10-30T05:06:35;98501.31;;;9.23;89.64
75788;BME280;64406;50.024;14.492;2022-10-30T05:09:01;98503.28;;;9.38;89.26
75788;BME280;64406;50.024;14.492;2022-10-30T05:11:26;98498.44;;;9.50;89.39
75788;BME280;64406;50.024;14.492;2022-10-30T05:13:52;98475.09;;;9.51;89.63
75788;BME280;64406;50.024;14.492;2022-10-30T05:16:17;98479.38;;;9.62;89.46
75788;BME280;64406;50.024;14.492;2022-10-30T05:18:43;98514.09;;;9.64;89.46
75788;BME280;64406;50.024;14.492;2022-10-30T05:21:08;98520.59;;;9.83;89.87
75788;BME280;64406;50.024;14.492;2022-10-30T05:23:34;98510.63;;;9.73;88.19
75788;BME280;64406;50.024;14.492;2022-10-30T05:26:00;98510.31;;;9.60;87.31
75788;BME280;64406;50.024;14.492;2022-10-30T05:28:25;98528.31;;;9.54;87.67
75788;BME280;64406;50.024;14.492;2022-10-30T05:30:52;98516.16;;;9.36;88.32
75788;BME280;64406;50.024;14.492;2022-10-30T05:33:17;98515.38;;;9.41;88.44
75788;BME280;64406;50.024;14.492;2022-10-30T05:35:43;98506.50;;;9.40;87.85
75788;BME280;64406;50.024;14.492;2022-10-30T05:38:09;98487.63;;;9.30;87.87
75788;BME280;64406;50.024;14.492;2022-10-30T05:40:35;98489.00;;;9.33;87.73
75788;BME280;64406;50.024;14.492;2022-10-30T05:43:01;98501.63;;;9.37;88.12
75788;BME280;64406;50.024;14.492;2022-10-30T05:45:26;98513.50;;;9.41;88.08
75788;BME280;64406;50.024;14.492;2022-10-30T05:47:55;98512.72;;;9.51;87.98
75788;BME280;64406;50.024;14.492;2022-10-30T05:50:21;98517.00;;;9.47;86.66
75788;BME280;64406;50.024;14.492;2022-10-30T05:52:47;98518.88;;;9.46;85.91
75788;BME280;64406;50.024;14.492;2022-10-30T05:55:13;98523.72;;;9.44;85.99
75788;BME280;64406;50.024;14.492;2022-10-30T05:57:38;98522.63;;;9.40;85.75
75788;BME280;64406;50.024;14.492;2022-10-30T06:00:04;98526.38;;;9.34;86.44
75788;BME280;64406;50.024;14.492;2022-10-30T06:02:30;98525.53;;;9.29;86.61
75788;BME280;64406;50.024;14.492;2022-10-30T06:04:55;98523.13;;;9.27;87.00
75788;BME280;64406;50.024;14.492;2022-10-30T06:07:21;98518.53;;;9.22;87.57
75788;BME280;64406;50.024;14.492;2022-10-30T06:09:46;98520.94;;;9.19;87.66
75788;BME280;64406;50.024;14.492;2022-10-30T06:12:12;98519.34;;;9.28;87.53
75788;BME280;64406;50.024;14.492;2022-10-30T06:14:37;98523.13;;;9.27;87.39
75788;BME280;64406;50.024;14.492;2022-10-30T06:17:03;98517.50;;;9.34;87.34
75788;BME280;64406;50.024;14.492;2022-10-30T06:19:28;98522.91;;;9.44;86.74
75788;BME280;64406;50.024;14.492;2022-10-30T06:21:54;98530.72;;;9.45;86.62
75788;BME280;64406;50.024;14.492;2022-10-30T06:24:19;98539.28;;;9.32;86.97
75788;BME280;64406;50.024;14.492;2022-10-30T06:26:45;98541.44;;;9.40;86.86
75788;BME280;64406;50.024;14.492;2022-10-30T06:29:10;98541.69;;;9.34;87.62
75788;BME280;64406;50.024;14.492;2022-10-30T06:31:36;98536.91;;;9.46;87.43
75788;BME280;64406;50.024;14.492;2022-10-30T06:34:02;98541.78;;;9.54;86.88
75788;BME280;64406;50.024;14.492;2022-10-30T06:36:27;98546.09;;;9.60;87.33
75788;BME280;64406;50.024;14.492;2022-10-30T06:38:53;98543.41;;;9.60;87.20
75788;BME280;64406;50.024;14.492;2022-10-30T06:41:18;98538.59;;;9.67;86.53
75788;BME280;64406;50.024;14.492;2022-10-30T06:43:44;98544.00;;;9.77;85.69
75788;BME280;64406;50.024;14.492;2022-10-30T06:46:09;98542.41;;;9.87;86.61
75788;BME280;64406;50.024;14.492;2022-10-30T06:48:35;98537.59;;;9.99;86.81
75788;BME280;64406;50.024;14.492;2022-10-30T06:51:00;98532.47;;;10.07;86.38
75788;BME280;64406;50.024;14.492;2022-10-30T06:53:28;98544.31;;;10.22;86.68
75788;BME280;64406;50.024;14.492;2022-10-30T06:55:58;98550.81;;;10.36;86.41
75788;BME280;64406;50.024;14.492;2022-10-30T06:58:25;98548.69;;;10.53;86.04
75788;BME280;64406;50.024;14.492;2022-10-30T07:00:51;98560.78;;;10.56;85.59
75788;BME280;64406;50.024;14.492;2022-10-30T07:03:17;98552.19;;;10.44;86.05
75788;BME280;64406;50.024;14.492;2022-10-30T07:05:42;98554.88;;;10.59;86.53
75788;BME280;64406;50.024;14.492;2022-10-30T07:08:08;98549.47;;;10.69;86.73
75788;BME280;64406;50.024;14.492;2022-10-30T07:10:34;98549.75;;;10.73;86.04
75788;BME280;64406;50.024;14.492;2022-10-30T07:12:59;98546.00;;;10.64;86.26
75788;BME280;64406;50.024;14.492;2022-10-30T07:15:25;98546.50;;;10.66;85.72
75788;BME280;64406;50.024;14.492;2022-10-30T07:17:56;98554.34;;;10.57;85.50
75788;BME280;64406;50.024;14.492;2022-10-30T07:20:22;98558.09;;;10.56;85.42
75788;BME280;64406;50.024;14.492;2022-10-30T07:22:47;98561.06;;;10.70;85.25
75788;BME280;64406;50.024;14.492;2022-10-30T07:25:13;98559.72;;;10.67;85.38
75788;BME280;64406;50.024;14.492;2022-10-30T07:27:49;98555.13;;;10.73;85.96
75788;BME280;64406;50.024;14.492;2022-10-30T07:30:17;98546.75;;;10.79;85.93
75788;BME280;64406;50.024;14.492;2022-10-30T07:32:43;98553.47;;;10.97;84.91
75788;BME280;64406;50.024;14.492;2022-10-30T07:35:10;98541.38;;;10.89;84.95
75788;BME280;64406;50.024;14.492;2022-10-30T07:37:37;98548.91;;;10.82;84.59
75788;BME280;64406;50.024;14.492;2022-10-30T07:40:03;98568.06;;;10.71;85.13
75788;BME280;64406;50.024;14.492;2022-10-30T07:42:29;98557.28;;;10.66;86.55
75788;BME280;64406;50.024;14.492;2022-10-30T07:44:55;98549.47;;;10.69;87.26
75788;BME280;64406;50.024;14.492;2022-10-30T07:47:20;98543.50;;;10.93;85.93
75788;BME280;64406;50.024;14.492;2022-10-30T07:49:45;98535.66;;;11.01;85.90
75788;BME280;64406;50.024;14.492;2022-10-30T07:52:11;98544.31;;;11.03;86.02
75788;BME280;64406;50.024;14.492;2022-10-30T07:54:36;98534.56;;;11.07;84.97
75788;BME280;64406;50.024;14.492;2022-10-30T07:57:02;98542.41;;;10.99;85.33
75788;BME280;64406;50.024;14.492;2022-10-30T07:59:28;98538.91;;;10.98;85.16
75788;BME280;64406;50.024;14.492;2022-10-30T08:01:53;98534.56;;;11.07;85.22
75788;BME280;64406;50.024;14.492;2022-10-30T08:04:19;98533.47;;;11.13;85.49
75788;BME280;64406;50.024;14.492;2022-10-30T08:06:44;98527.50;;;11.27;84.76
75788;BME280;64406;50.024;14.492;2022-10-30T08:09:10;98532.34;;;11.30;85.70
75788;BME280;64406;50.024;14.492;2022-10-30T08:11:35;98534.78;;;11.26;85.54
75788;BME280;64406;50.024;14.492;2022-10-30T08:14:01;98536.66;;;11.31;85.73
75788;BME280;64406;50.024;14.492;2022-10-30T08:16:26;98538.78;;;11.39;85.74
75788;BME280;64406;50.024;14.492;2022-10-30T08:18:52;98540.59;;;11.59;85.68
75788;BME280;64406;50.024;14.492;2022-10-30T08:21:19;98545.09;;;11.74;85.33
75788;BME280;64406;50.024;14.492;2022-10-30T08:23:44;98552.38;;;11.73;85.53
75788;BME280;64406;50.024;14.492;2022-10-30T08:26:09;98555.06;;;11.83;85.77
75788;BME280;64406;50.024;14.492;2022-10-30T08:28:35;98535.88;;;11.90;84.75
75788;BME280;64406;50.024;14.492;2022-10-30T08:31:01;98530.97;;;11.92;84.96
75788;BME280;64406;50.024;14.492;2022-10-30T08:33:27;98523.38;;;11.99;84.84
75788;BME280;64406;50.024;14.492;2022-10-30T08:35:55;98544.84;;;12.19;85.39
75788;BME280;64406;50.024;14.492;2022-10-30T08:38:21;98543.03;;;12.44;84.08
75788;BME280;64406;50.024;14.492;2022-10-30T08:40:47;98562.59;;;12.65;83.24
75788;BME280;64406;50.024;14.492;2022-10-30T08:43:13;98561.75;;;12.69;82.39
75788;BME280;64406;50.024;14.492;2022-10-30T08:45:39;98551.91;;;12.78;81.95
75788;BME280;64406;50.024;14.492;2022-10-30T08:48:05;98558.38;;;12.83;81.17
75788;BME280;64406;50.024;14.492;2022-10-30T08:50:32;98555.63;;;12.88;80.90
75788;BME280;64406;50.024;14.492;2022-10-30T08:53:02;98546.66;;;12.92;80.62
75788;BME280;64406;50.024;14.492;2022-10-30T08:55:32;98549.31;;;12.97;80.08
75788;BME280;64406;50.024;14.492;2022-10-30T08:57:58;98537.88;;;12.76;81.02
75788;BME280;64406;50.024;14.492;2022-10-30T09:00:24;98536.75;;;12.83;81.15
75788;BME280;64406;50.024;14.492;2022-10-30T09:02:50;98539.00;;;12.99;80.99
75788;BME280;64406;50.024;14.492;2022-10-30T09:05:16;98544.25;;;13.15;80.94
75788;BME280;64406;50.024;14.492;2022-10-30T09:07:42;98540.75;;;13.14;80.70
75788;BME280;64406;50.024;14.492;2022-10-30T09:10:07;98544.13;;;13.30;80.72
75788;BME280;64406;50.024;14.492;2022-10-30T09:12:33;98530.94;;;13.47;80.47
75788;BME280;64406;50.024;14.492;2022-10-30T09:14:59;98537.16;;;13.67;79.91
75788;BME280;64406;50.024;14.492;2022-10-30T09:17:25;98530.44;;;13.83;79.84
75788;BME280;64406;50.024;14.492;2022-10-30T09:19:50;98534.53;;;13.99;78.94
75788;BME280;64406;50.024;14.492;2022-10-30T09:22:16;98537.91;;;14.10;78.55
75788;BME280;64406;50.024;14.492;2022-10-30T09:24:42;98543.06;;;14.44;78.73
75788;BME280;64406;50.024;14.492;2022-10-30T09:27:07;98549.63;;;14.76;76.93
75788;BME280;64406;50.024;14.492;2022-10-30T09:29:33;98561.72;;;14.97;75.18
75788;BME280;64406;50.024;14.492;2022-10-30T09:32:00;98562.66;;;15.06;74.39
75788;BME280;64406;50.024;14.492;2022-10-30T09:34:26;98572.19;;;15.04;72.71
75788;BME280;64406;50.024;14.492;2022-10-30T09:36:52;98569.75;;;14.88;72.30
75788;BME280;64406;50.024;14.492;2022-10-30T09:39:17;98561.38;;;14.85;72.61
75788;BME280;64406;50.024;14.492;2022-10-30T09:50:31;98572.69;;;14.59;72.68
75788;BME280;64406;50.024;14.492;2022-10-30T09:55:39;98561.00;;;14.59;73.06
75788;BME280;64406;50.024;14.492;2022-10-30T09:58:20;98554.72;;;14.63;73.17
75788;BME280;64406;50.024;14.492;2022-10-30T10:00:52;98557.03;;;14.70;73.14
75788;BME280;64406;50.024;14.492;2022-10-30T10:03:40;98555.34;;;14.74;73.55
75788;BME280;64406;50.024;14.492;2022-10-30T10:06:17;98552.16;;;14.86;73.48
75788;BME280;64406;50.024;14.492;2022-10-30T10:08:51;98536.50;;;14.96;73.10
75788;BME280;64406;50.024;14.492;2022-10-30T10:11:38;98542.75;;;15.11;73.19
75788;BME280;64406;50.024;14.492;2022-10-30T10:14:11;98537.53;;;15.28;72.91
75788;BME280;64406;50.024;14.492;2022-10-30T10:16:39;98541.84;;;15.43;72.49
75788;BME280;64406;50.024;14.492;2022-10-30T10:19:21;98530.38;;;15.60;72.80
75788;BME280;64406;50.024;14.492;2022-10-30T10:24:24;98537.50;;;15.83;71.27
75788;BME280;64406;50.024;14.492;2022-10-30T10:30:12;98534.47;;;15.98;70.64
75788;BME280;64406;50.024;14.492;2022-10-30T10:35:22;98519.66;;;16.27;70.22
75788;BME280;64406;50.024;14.492;2022-10-30T10:37:56;98519.09;;;16.39;69.81
75788;BME280;64406;50.024;14.492;2022-10-30T10:51:44;98497.59;;;16.73;69.02
75788;BME280;64406;50.024;14.492;2022-10-30T10:54:17;98502.63;;;16.89;68.16
75788;BME280;64406;50.024;14.492;2022-10-30T10:56:45;98505.84;;;16.68;68.83
75788;BME280;64406;50.024;14.492;2022-10-30T10:59:25;98506.59;;;16.60;69.01
75788;BME280;64406;50.024;14.492;2022-10-30T11:02:10;98498.19;;;16.70;69.18
75788;BME280;64406;50.024;14.492;2022-10-30T11:04:48;98493.38;;;16.98;68.86
75788;BME280;64406;50.024;14.492;2022-10-30T11:07:24;98497.41;;;17.09;66.24
75788;BME280;64406;50.024;14.492;2022-10-30T11:09:54;98505.41;;;16.97;66.52
75788;BME280;64406;50.024;14.492;2022-10-30T11:12:26;98501.94;;;16.83;67.13
75788;BME280;64406;50.024;14.492;2022-10-30T11:14:53;98502.16;;;16.64;67.42
75788;BME280;64406;50.024;14.492;2022-10-30T11:17:25;98505.16;;;16.63;67.29
75788;BME280;64406;50.024;14.492;2022-10-30T11:20:00;98506.47;;;16.65;67.48
75788;BME280;64406;50.024;14.492;2022-10-30T11:22:36;98497.31;;;16.61;67.84
75788;BME280;64406;50.024;14.492;2022-10-30T11:25:19;98497.00;;;16.63;67.66
75788;BME280;64406;50.024;14.492;2022-10-30T11:27:53;98495.53;;;16.56;67.87
75788;BME280;64406;50.024;14.492;2022-10-30T11:30:24;98498.25;;;16.56;68.10
75788;BME280;64406;50.024;14.492;2022-10-30T11:32:53;98494.78;;;16.65;67.33
75788;BME280;64406;50.024;14.492;2022-10-30T11:35:20;98499.13;;;16.66;67.17
75788;BME280;64406;50.024;14.492;2022-10-30T11:37:48;98499.44;;;16.64;67.44
75788;BME280;64406;50.024;14.492;2022-10-30T11:42:46;98491.13;;;16.69;68.30
75788;BME280;64406;50.024;14.492;2022-10-30T11:45:18;98485.25;;;16.76;67.44
75788;BME280;64406;50.024;14.492;2022-10-30T11:47:45;98487.69;;;16.77;67.95
75788;BME280;64406;50.024;14.492;2022-10-30T11:50:18;98482.97;;;16.69;68.34
75788;BME280;64406;50.024;14.492;2022-10-30T11:52:47;98483.97;;;16.73;68.08
75788;BME280;64406;50.024;14.492;2022-10-30T11:55:22;98482.44;;;16.90;67.88
75788;BME280;64406;50.024;14.492;2022-10-30T11:57:51;98474.47;;;16.93;67.52
75788;BME280;64406;50.024;14.492;2022-10-30T12:00:23;98472.09;;;17.00;67.50
75788;BME280;64406;50.024;14.492;2022-10-30T12:02:51;98468.72;;;16.95;67.51
75788;BME280;64406;50.024;14.492;2022-10-30T12:10:55;98455.75;;;17.00;67.11
75788;BME280;64406;50.024;14.492;2022-10-30T12:13:20;98458.00;;;16.98;67.92
75788;BME280;64406;50.024;14.492;2022-10-30T12:16:03;98463.59;;;16.93;67.40
75788;BME280;64406;50.024;14.492;2022-10-30T12:18:30;98469.03;;;16.93;67.56
75788;BME280;64406;50.024;14.492;2022-10-30T12:20:56;98471.44;;;16.95;67.55
75788;BME280;64406;50.024;14.492;2022-10-30T12:23:25;98467.53;;;16.78;68.12
75788;BME280;64406;50.024;14.492;2022-10-30T12:25:53;98464.84;;;16.87;67.07
75788;BME280;64406;50.024;14.492;2022-10-30T12:28:21;98467.88;;;16.85;67.61
75788;BME280;64406;50.024;14.492;2022-10-30T12:30:53;98467.69;;;16.82;67.36
75788;BME280;64406;50.024;14.492;2022-10-30T12:35:58;98458.31;;;16.66;68.15
75788;BME280;64406;50.024;14.492;2022-10-30T12:41:38;98459.72;;;16.63;68.06
75788;BME280;64406;50.024;14.492;2022-10-30T12:49:35;98449.13;;;16.53;69.40
75788;BME280;64406;50.024;14.492;2022-10-30T12:54:51;98461.94;;;16.52;68.49
75788;BME280;64406;50.024;14.492;2022-10-30T12:57:29;98448.13;;;16.49;68.81
75788;BME280;64406;50.024;14.492;2022-10-30T13:00:10;98441.09;;;16.48;68.49
75788;BME280;64406;50.024;14.492;2022-10-30T13:05:40;98435.25;;;16.32;69.82
75788;BME280;64406;50.024;14.492;2022-10-30T13:11:13;98441.19;;;16.34;69.52
75788;BME280;64406;50.024;14.492;2022-10-30T13:13:42;98444.91;;;16.38;69.41
75788;BME280;64406;50.024;14.492;2022-10-30T13:16:17;98449.22;;;16.39;69.53
75788;BME280;64406;50.024;14.492;2022-10-30T13:18:44;98433.78;;;16.26;70.11
75788;BME280;64406;50.024;14.492;2022-10-30T13:26:48;98440.53;;;16.06;70.49
75788;BME280;64406;50.024;14.492;2022-10-30T13:29:49;98435.53;;;15.99;70.88
75788;BME280;64406;50.024;14.492;2022-10-30T13:37:57;98420.75;;;15.69;72.07
75788;BME280;64406;50.024;14.492;2022-10-30T13:46:14;98416.78;;;15.75;72.51
75788;BME280;64406;50.024;14.492;2022-10-30T13:51:26;98426.44;;;16.26;71.13
75788;BME280;64406;50.024;14.492;2022-10-30T13:54:16;98424.13;;;16.73;69.32
75788;BME280;64406;50.024;14.492;2022-10-30T13:56:44;98422.31;;;17.00;68.27
75788;BME280;64406;50.024;14.492;2022-10-30T14:01:49;98423.22;;;17.44;66.84
75788;BME280;64406;50.024;14.492;2022-10-30T14:07:11;98431.72;;;17.59;65.95
75788;BME280;64406;50.024;14.492;2022-10-30T14:20:47;98431.69;;;16.54;69.47
75788;BME280;64406;50.024;14.492;2022-10-30T14:23:29;98431.91;;;16.35;69.62
75788;BME280;64406;50.024;14.492;2022-10-30T14:28:37;98431.06;;;16.03;71.08
75788;BME280;64406;50.024;14.492;2022-10-30T14:31:11;98424.50;;;15.82;71.83
75788;BME280;64406;50.024;14.492;2022-10-30T14:33:49;98423.34;;;15.74;71.41
75788;BME280;64406;50.024;14.492;2022-10-30T14:36:47;98422.16;;;15.67;71.88
75788;BME280;64406;50.024;14.492;2022-10-30T14:42:27;98428.63;;;15.43;72.83
75788;BME280;64406;50.024;14.492;2022-10-30T14:48:06;98431.69;;;15.28;73.15
75788;BME280;64406;50.024;14.492;2022-10-30T14:53:23;98437.22;;;15.23;73.54
75788;BME280;64406;50.024;14.492;2022-10-30T14:56:04;98432.19;;;15.16;73.21
75788;BME280;64406;50.024;14.492;2022-10-30T14:58:36;98433.09;;;15.12;73.39
75788;BME280;64406;50.024;14.492;2022-10-30T15:09:09;98435.72;;;14.76;74.67
75788;BME280;64406;50.024;14.492;2022-10-30T15:14:23;98428.78;;;14.56;75.46
75788;BME280;64406;50.024;14.492;2022-10-30T15:16:50;98432.50;;;14.46;75.86
75788;BME280;64406;50.024;14.492;2022-10-30T15:19:21;98421.88;;;14.31;76.50